createdAt,value
2019-04-10T00:00:10.642Z,12.53
2019-04-10T00:02:37.641Z,15.67
2019-04-10T00:05:06.343Z,16.43
2019-04-10T00:07:32.971Z,13.97
2019-04-10T00:09:59.294Z,12.90
2019-04-10T00:12:25.486Z,11.97
2019-04-10T00:14:52.496Z,11.37
2019-04-10T00:17:18.593Z,13.23
2019-04-10T00:19:45.523Z,13.70
2019-04-10T00:22:11.719Z,11.50
2019-04-10T00:24:37.890Z,13.47
2019-04-10T00:27:04.116Z,13.40
2019-04-10T00:29:30.272Z,12.70
2019-04-10T00:31:56.411Z,13.60
2019-04-10T00:34:23.298Z,10.87
2019-04-10T00:36:49.244Z,12.47
2019-04-10T00:39:15.156Z,13.03
2019-04-10T00:41:41.025Z,12.50
2019-04-10T00:44:07.754Z,11.67
2019-04-10T00:46:34.648Z,14.73
2019-04-10T00:49:00.721Z,12.00
2019-04-10T00:51:27.420Z,14.50
2019-04-10T00:53:53.869Z,13.93
2019-04-10T00:56:20.757Z,14.57
2019-04-10T00:58:47.805Z,15.23
2019-04-10T01:01:13.921Z,12.53
2019-04-10T01:03:43.026Z,13.30
2019-04-10T01:06:11.272Z,14.87
2019-04-10T01:08:37.464Z,12.33
2019-04-10T01:11:03.316Z,13.13
2019-04-10T01:13:29.314Z,13.27
2019-04-10T01:15:55.243Z,12.80
2019-04-10T01:18:21.383Z,14.47
2019-04-10T01:20:48.075Z,14.30
2019-04-10T01:23:14.045Z,13.53
2019-04-10T01:25:40.869Z,13.93
2019-04-10T01:28:06.866Z,12.67
2019-04-10T01:30:32.832Z,15.00
2019-04-10T01:32:58.744Z,15.23
2019-04-10T01:35:24.621Z,12.97
2019-04-10T01:37:56.176Z,14.60
2019-04-10T01:40:19.143Z,13.40
2019-04-10T01:42:59.971Z,14.43
2019-04-10T01:45:13.840Z,14.50
2019-04-10T01:47:39.780Z,22.33
2019-04-10T01:50:06.377Z,15.03
2019-04-10T01:52:33.221Z,13.07
2019-04-10T01:54:59.778Z,13.83
2019-04-10T01:57:25.727Z,15.40
2019-04-10T01:59:51.740Z,16.07
2019-04-10T02:02:19.591Z,14.37
2019-04-10T02:04:45.545Z,14.67
2019-04-10T02:07:11.402Z,15.63
2019-04-10T02:09:37.255Z,15.97
2019-04-10T02:12:04.012Z,14.50
2019-04-10T02:14:30.102Z,16.43
2019-04-10T02:16:56.970Z,15.97
2019-04-10T02:19:23.871Z,17.53
2019-04-10T02:21:49.831Z,16.83
2019-04-10T02:24:16.636Z,18.03
2019-04-10T02:26:43.465Z,16.30
2019-04-10T02:29:09.363Z,16.33
2019-04-10T02:31:36.581Z,14.33
2019-04-10T02:34:04.608Z,15.60
2019-04-10T02:36:31.554Z,15.40
2019-04-10T02:39:10.147Z,16.53
2019-04-10T02:41:25.614Z,14.93
2019-04-10T02:43:51.572Z,17.07
2019-04-10T02:46:17.541Z,16.60
2019-04-10T02:48:43.480Z,14.57
2019-04-10T02:51:09.783Z,17.47
2019-04-10T02:53:37.397Z,16.17
2019-04-10T02:56:05.246Z,17.87
2019-04-10T02:58:32.240Z,17.17
2019-04-10T03:00:59.079Z,17.20
2019-04-10T03:03:25.479Z,18.17
2019-04-10T03:05:51.584Z,15.27
2019-04-10T03:08:17.534Z,16.53
2019-04-10T03:10:49.553Z,14.40
2019-04-10T03:13:11.747Z,15.00
2019-04-10T03:15:39.233Z,15.30
2019-04-10T03:18:06.366Z,14.13
2019-04-10T03:20:32.549Z,14.27
2019-04-10T03:22:58.813Z,15.73
2019-04-10T03:25:24.779Z,17.83
2019-04-10T03:27:50.626Z,15.50
2019-04-10T03:30:18.383Z,15.07
2019-04-10T03:32:51.585Z,17.77
2019-04-10T03:35:18.757Z,18.77
2019-04-10T03:37:44.705Z,17.57
2019-04-10T03:40:11.206Z,15.87
2019-04-10T03:42:37.314Z,18.73
2019-04-10T03:45:05.554Z,15.40
2019-04-10T03:47:31.669Z,17.73
2019-04-10T03:49:58.253Z,15.67
2019-04-10T03:52:25.266Z,15.43
2019-04-10T03:54:52.308Z,24.93
2019-04-10T03:57:18.474Z,15.00
2019-04-10T03:59:45.418Z,17.17
2019-04-10T04:02:11.681Z,17.43
2019-04-10T04:04:37.754Z,15.73
2019-04-10T04:07:03.636Z,16.73
2019-04-10T04:09:29.491Z,15.67
2019-04-10T04:11:57.883Z,14.67
2019-04-10T04:14:24.191Z,15.50
2019-04-10T04:16:51.159Z,16.10
2019-04-10T04:19:17.697Z,16.03
2019-04-10T04:21:43.985Z,15.13
2019-04-10T04:24:09.943Z,17.00
2019-04-10T04:26:35.795Z,20.87
2019-04-10T04:29:02.022Z,20.70
2019-04-10T04:31:29.072Z,20.43
2019-04-10T04:33:55.589Z,15.37
2019-04-10T04:36:21.513Z,18.23
2019-04-10T04:38:47.453Z,15.30
2019-04-10T04:41:13.372Z,16.07
2019-04-10T04:43:41.920Z,15.37
2019-04-10T04:46:07.921Z,20.10
2019-04-10T04:48:34.286Z,20.17
2019-04-10T04:51:01.195Z,19.23
2019-04-10T04:53:27.985Z,17.27
2019-04-10T04:55:53.919Z,18.70
2019-04-10T04:58:20.292Z,19.37
2019-04-10T05:00:46.251Z,20.43
2019-04-10T05:03:12.147Z,18.93
2019-04-10T05:05:39.053Z,19.67
2019-04-10T05:08:05.908Z,20.47
2019-04-10T05:10:33.546Z,18.80
2019-04-10T05:12:59.931Z,19.63
2019-04-10T05:15:26.900Z,18.87
2019-04-10T05:17:53.525Z,18.77
2019-04-10T05:20:19.663Z,18.83
2019-04-10T05:22:45.707Z,19.70
2019-04-10T05:25:11.610Z,21.60
2019-04-10T05:27:37.572Z,27.10
2019-04-10T05:30:06.211Z,18.77
2019-04-10T05:32:32.944Z,20.30
2019-04-10T05:34:59.129Z,17.43
2019-04-10T05:37:25.133Z,20.80
2019-04-10T05:39:52.335Z,17.73
2019-04-10T05:42:18.859Z,26.27
2019-04-10T05:44:44.798Z,22.57
2019-04-10T05:47:11.677Z,20.47
2019-04-10T05:49:37.775Z,21.50
2019-04-10T05:52:04.220Z,20.03
2019-04-10T05:54:31.137Z,21.67
2019-04-10T05:56:57.100Z,20.70
2019-04-10T05:59:23.891Z,22.80
2019-04-10T06:01:50.546Z,19.20
2019-04-10T06:04:16.906Z,21.97
2019-04-10T06:06:44.250Z,19.40
2019-04-10T06:09:10.257Z,23.07
2019-04-10T06:11:37.256Z,19.27
2019-04-10T06:14:03.506Z,17.30
2019-04-10T06:16:30.300Z,16.27
2019-04-10T06:18:57.561Z,15.13
2019-04-10T06:21:23.592Z,13.80
2019-04-10T06:23:49.869Z,13.53
2019-04-10T06:26:16.995Z,16.10
2019-04-10T06:28:43.195Z,13.20
2019-04-10T06:31:09.270Z,14.13
2019-04-10T06:33:36.085Z,14.17
2019-04-10T06:36:02.863Z,16.33
2019-04-10T06:38:29.043Z,17.27
2019-04-10T06:40:54.961Z,12.27
2019-04-10T06:43:22.195Z,14.40
2019-04-10T06:45:48.515Z,14.43
2019-04-10T06:48:15.059Z,17.23
2019-04-10T06:50:41.260Z,14.00
2019-04-10T06:53:08.237Z,15.27
2019-04-10T06:55:34.397Z,14.10
2019-04-10T06:58:00.912Z,17.93
2019-04-10T07:00:26.920Z,18.80
2019-04-10T07:02:52.805Z,15.73
2019-04-10T07:05:19.792Z,15.43
2019-04-10T07:07:51.977Z,12.43
2019-04-10T07:10:22.446Z,16.77
2019-04-10T07:12:41.729Z,16.60
2019-04-10T07:15:08.485Z,16.67
2019-04-10T07:17:37.548Z,14.67
2019-04-10T07:20:05.203Z,15.57
2019-04-10T07:22:31.180Z,17.23
2019-04-10T07:24:57.164Z,14.77
2019-04-10T07:27:23.661Z,16.03
2019-04-10T07:29:52.307Z,20.10
2019-04-10T07:32:18.396Z,18.40
2019-04-10T07:34:45.190Z,15.87
2019-04-10T07:37:14.656Z,13.00
2019-04-10T07:39:39.558Z,15.80
2019-04-10T07:42:06.201Z,13.40
2019-04-10T07:44:34.898Z,13.90
2019-04-10T07:47:00.940Z,14.60
2019-04-10T07:49:30.768Z,13.50
2019-04-10T07:51:54.599Z,18.17
2019-04-10T07:54:21.311Z,18.40
2019-04-10T07:56:49.387Z,14.37
2019-04-10T07:59:16.678Z,12.97
2019-04-10T08:01:43.725Z,12.83
2019-04-10T08:04:10.469Z,14.07
2019-04-10T08:06:37.418Z,13.70
2019-04-10T08:09:06.370Z,11.57
2019-04-10T08:11:32.287Z,12.17
2019-04-10T08:13:58.173Z,15.27
2019-04-10T08:16:25.248Z,14.93
2019-04-10T08:18:52.134Z,14.03
2019-04-10T08:21:18.161Z,16.83
2019-04-10T08:23:44.564Z,12.30
2019-04-10T08:26:10.730Z,12.67
2019-04-10T08:28:36.964Z,13.87
2019-04-10T08:31:02.984Z,12.43
2019-04-10T08:33:30.127Z,14.30
2019-04-10T08:35:56.863Z,13.47
2019-04-10T08:38:24.009Z,12.93
2019-04-10T08:40:50.199Z,17.90
2019-04-10T08:43:16.058Z,13.43
2019-04-10T08:45:49.526Z,14.57
2019-04-10T08:48:10.890Z,13.53
2019-04-10T08:50:36.817Z,16.03
2019-04-10T08:53:02.720Z,14.33
2019-04-10T08:55:28.608Z,15.33
2019-04-10T08:57:54.979Z,14.60
2019-04-10T09:00:21.144Z,13.70
2019-04-10T09:02:47.003Z,12.27
2019-04-10T09:05:13.276Z,15.70
2019-04-10T09:07:40.088Z,16.70
2019-04-10T09:10:06.503Z,14.17
2019-04-10T09:12:32.388Z,14.63
2019-04-10T09:14:59.714Z,15.53
2019-04-10T09:17:25.551Z,11.30
2019-04-10T09:19:52.123Z,13.77
2019-04-10T09:22:18.098Z,13.17
2019-04-10T09:24:44.630Z,15.60
2019-04-10T09:27:10.974Z,15.43
2019-04-10T09:29:36.933Z,14.43
2019-04-10T09:32:02.949Z,13.93
2019-04-10T09:34:28.909Z,11.80
2019-04-10T09:36:54.827Z,14.60
2019-04-10T09:39:20.704Z,12.03
2019-04-10T09:41:47.222Z,13.80
2019-04-10T09:44:14.348Z,14.47
2019-04-10T09:46:40.829Z,13.43
2019-04-10T09:49:07.009Z,14.00
2019-04-10T09:51:34.111Z,13.53
2019-04-10T09:54:00.241Z,12.33
2019-04-10T09:56:26.183Z,11.93
2019-04-10T09:58:53.969Z,12.40
2019-04-10T10:01:19.992Z,11.60
2019-04-10T10:03:45.915Z,14.30
2019-04-10T10:06:23.222Z,12.37
2019-04-10T10:08:39.524Z,14.23
2019-04-10T10:11:06.126Z,20.20
2019-04-10T10:13:32.274Z,14.87
2019-04-10T10:15:58.740Z,13.87
2019-04-10T10:18:27.712Z,12.47
2019-04-10T10:20:54.295Z,13.03
2019-04-10T10:23:20.307Z,14.83
2019-04-10T10:25:46.398Z,12.93
2019-04-10T10:28:13.189Z,13.37
2019-04-10T10:30:39.756Z,12.83
2019-04-10T10:33:05.707Z,13.70
2019-04-10T10:35:31.562Z,13.30
2019-04-10T10:37:57.457Z,13.20
2019-04-10T10:40:25.582Z,12.67
2019-04-10T10:42:51.931Z,13.73
2019-04-10T10:45:18.629Z,13.33
2019-04-10T10:47:44.686Z,14.27
2019-04-10T10:50:13.006Z,15.43
2019-04-10T10:52:44.178Z,16.23
2019-04-10T10:55:10.125Z,12.43
2019-04-10T10:57:37.344Z,16.43
2019-04-10T11:00:08.191Z,13.20
2019-04-10T11:02:35.801Z,13.63
2019-04-10T11:05:04.986Z,15.53
2019-04-10T11:07:31.021Z,13.70
2019-04-10T11:09:58.591Z,14.67
2019-04-10T11:12:24.701Z,15.10
2019-04-10T11:14:52.298Z,12.73
2019-04-10T11:17:18.396Z,12.50
2019-04-10T11:19:45.544Z,14.30
2019-04-10T11:22:14.075Z,14.00
2019-04-10T11:24:41.283Z,12.17
2019-04-10T11:27:09.999Z,14.20
2019-04-10T11:29:37.685Z,11.67
2019-04-10T11:32:04.257Z,11.97
2019-04-10T11:34:30.596Z,13.33
2019-04-10T11:37:16.530Z,11.73
2019-04-10T11:39:28.563Z,11.40
2019-04-10T11:41:55.135Z,12.43
2019-04-10T11:44:21.634Z,14.07
2019-04-10T11:46:49.230Z,11.83
2019-04-10T11:49:15.945Z,11.00
2019-04-10T11:51:45.322Z,11.23
2019-04-10T11:54:14.585Z,13.63
2019-04-10T11:56:38.907Z,11.70
2019-04-10T11:59:07.600Z,13.47
2019-04-10T12:01:34.242Z,11.93
2019-04-10T12:04:00.469Z,11.97
2019-04-10T12:06:30.925Z,11.53
2019-04-10T12:09:19.539Z,10.13
2019-04-10T12:11:25.695Z,15.07
2019-04-10T12:13:51.771Z,13.57
2019-04-10T12:16:17.822Z,14.60
2019-04-10T12:18:43.773Z,13.77
2019-04-10T12:21:09.698Z,9.87
2019-04-10T12:23:36.801Z,15.27
2019-04-10T12:26:03.354Z,11.67
2019-04-10T12:28:29.873Z,11.20
2019-04-10T12:30:55.829Z,10.17
2019-04-10T12:33:21.679Z,17.17
2019-04-10T12:35:47.810Z,14.90
2019-04-10T12:38:13.692Z,12.87
2019-04-10T12:40:40.508Z,15.37
2019-04-10T12:43:06.554Z,14.87
2019-04-10T12:45:32.666Z,15.57
2019-04-10T12:47:58.637Z,11.70
2019-04-10T12:50:24.774Z,13.50
2019-04-10T12:52:51.284Z,11.20
2019-04-10T12:55:17.172Z,11.70
2019-04-10T12:57:43.457Z,11.53
2019-04-10T13:00:11.786Z,15.70
2019-04-10T13:02:38.640Z,9.93
2019-04-10T13:05:07.702Z,13.03
2019-04-10T13:07:33.931Z,10.97
2019-04-10T13:09:59.958Z,11.60
2019-04-10T13:12:26.483Z,8.40
2019-04-10T13:14:52.858Z,9.50
2019-04-10T13:17:20.274Z,13.27
2019-04-10T13:19:46.342Z,12.03
2019-04-10T13:22:12.268Z,11.83
2019-04-10T13:24:38.158Z,10.03
2019-04-10T13:27:04.286Z,9.63
2019-04-10T13:29:30.151Z,11.73
2019-04-10T13:31:56.160Z,13.20
2019-04-10T13:34:25.036Z,10.80
2019-04-10T13:36:51.578Z,11.23
2019-04-10T13:39:18.969Z,11.70
2019-04-10T13:41:48.426Z,10.30
2019-04-10T13:44:14.398Z,17.47
2019-04-10T13:46:40.686Z,15.80
2019-04-10T13:49:06.750Z,12.97
2019-04-10T13:51:32.646Z,11.27
2019-04-10T13:53:58.594Z,12.90
2019-04-10T13:56:25.346Z,11.37
2019-04-10T13:58:51.290Z,11.50
2019-04-10T14:01:19.635Z,16.47
2019-04-10T14:03:46.897Z,12.63
2019-04-10T14:06:13.683Z,15.10
2019-04-10T14:08:58.628Z,11.63
2019-04-10T14:11:08.993Z,12.93
2019-04-10T14:13:35.945Z,10.47
2019-04-10T14:16:01.808Z,13.97
2019-04-10T14:18:27.667Z,13.40
2019-04-10T14:20:53.595Z,16.73
2019-04-10T14:23:22.281Z,9.00
2019-04-10T14:25:56.418Z,11.10
2019-04-10T14:28:24.922Z,11.10
2019-04-10T14:30:51.591Z,12.80
2019-04-10T14:33:17.567Z,12.13
2019-04-10T14:35:45.385Z,12.53
2019-04-10T14:38:14.900Z,11.73
2019-04-10T14:40:41.290Z,11.17
2019-04-10T14:43:07.547Z,11.07
2019-04-10T14:45:35.338Z,10.30
2019-04-10T14:48:01.320Z,10.37
2019-04-10T14:50:27.611Z,13.80
2019-04-10T14:52:53.796Z,10.20
2019-04-10T14:55:22.060Z,10.00
2019-04-10T14:57:48.201Z,10.00
2019-04-10T15:00:16.826Z,11.17
2019-04-10T15:02:43.087Z,12.20
2019-04-10T15:05:10.062Z,12.20
2019-04-10T15:07:37.198Z,12.03
2019-04-10T15:10:04.256Z,13.70
2019-04-10T15:12:30.223Z,15.83
2019-04-10T15:14:56.271Z,13.53
2019-04-10T15:17:23.115Z,11.37
2019-04-10T15:19:50.630Z,10.30
2019-04-10T15:22:17.819Z,13.97
2019-04-10T15:24:45.007Z,10.17
2019-04-10T15:27:11.175Z,12.73
2019-04-10T15:29:37.195Z,16.47
2019-04-10T15:32:04.161Z,12.50
2019-04-10T15:34:30.306Z,10.17
2019-04-10T15:36:56.455Z,13.00
2019-04-10T15:39:32.366Z,11.97
2019-04-10T15:41:51.837Z,11.73
2019-04-10T15:44:18.292Z,10.87
2019-04-10T15:46:44.237Z,10.33
2019-04-10T15:49:11.102Z,10.43
2019-04-10T15:51:37.111Z,9.27
2019-04-10T15:54:03.002Z,9.87
2019-04-10T15:56:29.802Z,12.27
2019-04-10T15:58:56.841Z,9.63
2019-04-10T16:01:28.149Z,10.90
2019-04-10T16:03:53.413Z,10.27
2019-04-10T16:06:19.309Z,11.23
2019-04-10T16:08:45.179Z,11.90
2019-04-10T16:11:21.963Z,9.47
2019-04-10T16:13:49.996Z,8.13
2019-04-10T16:16:17.746Z,12.60
2019-04-10T16:18:44.320Z,8.87
2019-04-10T16:21:10.389Z,9.33
2019-04-10T16:23:38.294Z,10.00
2019-04-10T16:26:06.972Z,10.00
2019-04-10T16:28:33.547Z,11.27
2019-04-10T16:31:01.407Z,10.10
2019-04-10T16:33:27.400Z,9.33
2019-04-10T16:35:53.269Z,12.57
2019-04-10T16:38:19.115Z,11.77
2019-04-10T16:40:45.913Z,12.53
2019-04-10T16:43:13.945Z,9.30
2019-04-10T16:45:42.966Z,11.07
2019-04-10T16:48:08.810Z,12.23
2019-04-10T16:50:34.824Z,14.27
2019-04-10T16:53:01.320Z,10.23
2019-04-10T16:55:27.308Z,9.20
2019-04-10T16:57:53.491Z,10.73
2019-04-10T17:00:21.024Z,11.03
2019-04-10T17:02:48.524Z,9.37
2019-04-10T17:05:14.561Z,11.30
2019-04-10T17:07:41.249Z,10.77
2019-04-10T17:10:15.980Z,13.53
2019-04-10T17:12:35.922Z,11.60
2019-04-10T17:15:06.195Z,11.93
2019-04-10T17:17:32.572Z,9.07
2019-04-10T17:19:59.502Z,15.07
2019-04-10T17:22:32.358Z,16.13
2019-04-10T17:24:54.032Z,16.20
2019-04-10T17:27:19.874Z,9.67
2019-04-10T17:29:47.252Z,10.93
2019-04-10T17:32:15.412Z,10.43
2019-04-10T17:34:41.332Z,8.83
2019-04-10T17:37:07.574Z,8.90
2019-04-10T17:39:33.564Z,11.43
2019-04-10T17:41:59.905Z,12.17
2019-04-10T17:44:26.067Z,11.23
2019-04-10T17:46:51.952Z,11.13
2019-04-10T17:49:19.149Z,9.73
2019-04-10T17:51:45.944Z,10.30
2019-04-10T17:54:13.800Z,8.83
2019-04-10T17:56:40.176Z,12.73
2019-04-10T17:59:06.203Z,9.57
2019-04-10T18:01:32.773Z,10.53
2019-04-10T18:04:01.825Z,9.97
2019-04-10T18:06:27.688Z,11.07
2019-04-10T18:08:53.675Z,10.70
2019-04-10T18:11:22.382Z,9.57
2019-04-10T18:13:49.182Z,10.33
2019-04-10T18:16:15.149Z,13.00
2019-04-10T18:18:42.045Z,10.27
2019-04-10T18:21:08.627Z,10.57
2019-04-10T18:23:35.605Z,11.67
2019-04-10T18:26:02.497Z,10.00
2019-04-10T18:28:30.937Z,9.53
2019-04-10T18:30:56.554Z,12.10
2019-04-10T18:33:22.624Z,10.33
2019-04-10T18:35:49.085Z,11.17
2019-04-10T18:38:17.403Z,10.27
2019-04-10T18:40:53.106Z,13.00
2019-04-10T18:43:11.870Z,11.13
2019-04-10T18:45:40.534Z,16.27
2019-04-10T18:48:06.252Z,14.40
2019-04-10T18:50:32.288Z,12.17
2019-04-10T18:52:59.348Z,10.17
2019-04-10T18:55:25.823Z,8.53
2019-04-10T18:57:51.680Z,11.03
2019-04-10T19:00:28.535Z,11.53
2019-04-10T19:03:09.525Z,11.10
2019-04-10T19:05:38.351Z,9.40
2019-04-10T19:08:05.063Z,9.10
2019-04-10T19:10:31.190Z,9.23
2019-04-10T19:12:57.313Z,11.13
2019-04-10T19:15:24.419Z,10.37
2019-04-10T19:17:50.962Z,8.93
2019-04-10T19:20:17.982Z,9.57
2019-04-10T19:22:44.681Z,11.07
2019-04-10T19:25:16.513Z,11.17
2019-04-10T19:27:44.452Z,9.30
2019-04-10T19:30:15.275Z,9.30
2019-04-10T19:32:43.732Z,8.90
2019-04-10T19:35:10.753Z,11.83
2019-04-10T19:37:45.799Z,8.30
2019-04-10T19:40:12.230Z,12.63
2019-04-10T19:42:41.782Z,9.00
2019-04-10T19:45:10.360Z,9.27
2019-04-10T19:47:36.767Z,9.40
2019-04-10T19:50:05.370Z,8.37
2019-04-10T19:52:31.447Z,9.73
2019-04-10T19:54:59.611Z,10.97
2019-04-10T19:57:25.628Z,8.07
2019-04-10T19:59:52.292Z,11.57
2019-04-10T20:02:19.065Z,10.83
2019-04-10T20:04:45.175Z,9.20
2019-04-10T20:07:11.186Z,10.53
2019-04-10T20:09:37.169Z,9.53
2019-04-10T20:12:04.326Z,10.97
2019-04-10T20:14:30.585Z,10.00
2019-04-10T20:16:57.643Z,18.20
2019-04-10T20:19:24.597Z,11.03
2019-04-10T20:21:50.530Z,8.57
2019-04-10T20:24:16.651Z,8.93
2019-04-10T20:26:43.390Z,9.27
2019-04-10T20:29:10.924Z,9.17
2019-04-10T20:31:37.643Z,9.27
2019-04-10T20:34:03.903Z,8.80
2019-04-10T20:36:31.053Z,8.60
2019-04-10T20:38:57.210Z,7.40
2019-04-10T20:41:23.142Z,8.80
2019-04-10T20:43:49.091Z,7.43
2019-04-10T20:46:15.022Z,10.53
2019-04-10T20:48:40.863Z,9.33
2019-04-10T20:51:06.793Z,7.40
2019-04-10T20:53:33.611Z,10.07
2019-04-10T20:56:01.973Z,12.27
2019-04-10T20:58:27.956Z,8.07
2019-04-10T21:00:54.765Z,7.57
2019-04-10T21:03:20.708Z,7.07
2019-04-10T21:05:46.626Z,9.57
2019-04-10T21:08:13.640Z,6.43
2019-04-10T21:10:40.868Z,9.67
2019-04-10T21:13:07.000Z,8.13
2019-04-10T21:15:33.427Z,7.73
2019-04-10T21:17:59.433Z,8.50
2019-04-10T21:20:26.123Z,9.83
2019-04-10T21:22:53.449Z,8.77
2019-04-10T21:25:19.411Z,8.50
2019-04-10T21:27:48.474Z,9.13
2019-04-10T21:30:15.726Z,6.33
2019-04-10T21:32:43.830Z,7.33
2019-04-10T21:35:15.877Z,7.13
2019-04-10T21:37:42.450Z,9.73
2019-04-10T21:40:08.675Z,10.57
2019-04-10T21:42:34.529Z,8.13
2019-04-10T21:45:00.422Z,7.73
2019-04-10T21:47:26.323Z,8.83
2019-04-10T21:49:53.309Z,9.10
2019-04-10T21:52:19.324Z,7.60
2019-04-10T21:54:51.206Z,8.43
2019-04-10T21:57:14.020Z,7.87
2019-04-10T21:59:39.876Z,8.27
2019-04-10T22:02:06.829Z,8.53
2019-04-10T22:04:32.947Z,7.90
2019-04-10T22:07:03.608Z,9.23
2019-04-10T22:09:47.409Z,8.70
2019-04-10T22:12:25.646Z,10.53
2019-04-10T22:14:46.059Z,10.23
2019-04-10T22:17:12.992Z,7.73
2019-04-10T22:19:39.562Z,8.57
2019-04-10T22:22:06.292Z,7.80
2019-04-10T22:24:32.379Z,8.17
2019-04-10T22:26:58.624Z,8.63
2019-04-10T22:29:28.261Z,10.77
2019-04-10T22:31:54.226Z,9.00
2019-04-10T22:34:21.289Z,7.83
2019-04-10T22:36:47.411Z,13.07
2019-04-10T22:39:16.671Z,10.47
2019-04-10T22:41:43.302Z,8.37
2019-04-10T22:44:09.773Z,8.07
2019-04-10T22:46:36.297Z,8.67
2019-04-10T22:49:02.375Z,10.53
2019-04-10T22:51:29.105Z,9.37
2019-04-10T22:53:55.637Z,9.67
2019-04-10T22:56:21.586Z,11.97
2019-04-10T22:58:47.493Z,11.23
2019-04-10T23:01:13.520Z,10.50
2019-04-10T23:03:39.469Z,9.63
2019-04-10T23:06:05.376Z,8.33
2019-04-10T23:08:31.640Z,10.73
2019-04-10T23:10:57.839Z,9.93
2019-04-10T23:13:23.799Z,8.57
2019-04-10T23:15:49.664Z,9.20
2019-04-10T23:18:15.513Z,9.53
2019-04-10T23:20:41.769Z,8.10
2019-04-10T23:23:08.561Z,10.33
2019-04-10T23:25:34.788Z,8.80
2019-04-10T23:28:01.083Z,11.03
2019-04-10T23:30:27.087Z,9.63
2019-04-10T23:32:53.537Z,8.80
2019-04-10T23:35:19.506Z,8.97
2019-04-10T23:37:45.430Z,11.57
2019-04-10T23:40:12.452Z,9.90
2019-04-10T23:42:38.415Z,9.17
2019-04-10T23:45:05.174Z,11.47
2019-04-10T23:47:31.859Z,8.53
2019-04-10T23:49:57.832Z,9.23
2019-04-10T23:52:23.662Z,10.87
2019-04-10T23:54:49.548Z,11.07
2019-04-10T23:57:15.371Z,10.97
2019-04-10T23:59:41.214Z,9.07
